sensor_id;sensor_type;location;lat;lon;timestamp;pressure;altitude;pressure_sealevel;temperature;humidity
45345;BME280;31078;48.304;11.896;2022-10-16T00:00:20;96287.22;;;14.04;90.32
45345;BME280;31078;48.304;11.896;2022-10-16T00:02:46;96284.59;;;14.08;90.35
45345;BME280;31078;48.304;11.896;2022-10-16T00:05:13;96288.81;;;14.05;90.41
45345;BME280;31078;48.304;11.896;2022-10-16T00:07:40;96293.50;;;14.05;90.53
45345;BME280;31078;48.304;11.896;2022-10-16T00:10:07;96291.88;;;14.04;90.59
45345;BME280;31078;48.304;11.896;2022-10-16T00:12:35;96295.09;;;14.06;90.36
45345;BME280;31078;48.304;11.896;2022-10-16T00:15:01;96287.22;;;14.04;90.46
45345;BME280;31078;48.304;11.896;2022-10-16T00:17:29;96288.69;;;14.02;90.53
45345;BME280;31078;48.304;11.896;2022-10-16T00:19:55;96294.19;;;14.02;90.62
45345;BME280;31078;48.304;11.896;2022-10-16T00:22:22;96298.06;;;14.01;90.41
45345;BME280;31078;48.304;11.896;2022-10-16T00:24:49;96304.34;;;14.01;90.57
45345;BME280;31078;48.304;11.896;2022-10-16T00:27:16;96305.78;;;13.99;90.68
45345;BME280;31078;48.304;11.896;2022-10-16T00:29:44;96308.31;;;13.92;91.39
45345;BME280;31078;48.304;11.896;2022-10-16T00:32:10;96316.06;;;14.02;91.09
45345;BME280;31078;48.304;11.896;2022-10-16T00:34:37;96315.72;;;14.03;90.97
45345;BME280;31078;48.304;11.896;2022-10-16T00:37:03;96322.31;;;13.78;92.01
45345;BME280;31078;48.304;11.896;2022-10-16T00:39:30;96316.75;;;13.87;92.16
45345;BME280;31078;48.304;11.896;2022-10-16T00:41:56;96309.00;;;13.89;91.86
45345;BME280;31078;48.304;11.896;2022-10-16T00:44:46;96309.91;;;13.80;92.01
45345;BME280;31078;48.304;11.896;2022-10-16T00:47:17;96309.22;;;13.83;91.95
45345;BME280;31078;48.304;11.896;2022-10-16T00:49:46;96303.06;;;13.87;91.85
45345;BME280;31078;48.304;11.896;2022-10-16T00:52:14;96298.94;;;13.80;92.45
45345;BME280;31078;48.304;11.896;2022-10-16T00:54:41;96300.53;;;13.81;92.40
45345;BME280;31078;48.304;11.896;2022-10-16T00:57:07;96306.94;;;13.86;91.84
45345;BME280;31078;48.304;11.896;2022-10-16T00:59:37;96303.06;;;13.87;91.72
45345;BME280;31078;48.304;11.896;2022-10-16T01:02:07;96317.22;;;13.89;91.88
45345;BME280;31078;48.304;11.896;2022-10-16T01:04:37;96313.78;;;13.79;92.54
45345;BME280;31078;48.304;11.896;2022-10-16T01:07:10;96310.47;;;13.86;92.50
45345;BME280;31078;48.304;11.896;2022-10-16T01:09:47;96307.59;;;13.82;92.85
45345;BME280;31078;48.304;11.896;2022-10-16T01:12:23;96302.94;;;13.83;92.78
45345;BME280;31078;48.304;11.896;2022-10-16T01:14:57;96300.09;;;13.79;92.80
45345;BME280;31078;48.304;11.896;2022-10-16T01:17:31;96304.06;;;13.82;92.66
45345;BME280;31078;48.304;11.896;2022-10-16T01:20:08;96313.06;;;13.82;92.69
45345;BME280;31078;48.304;11.896;2022-10-16T01:22:47;96314.69;;;13.83;92.92
45345;BME280;31078;48.304;11.896;2022-10-16T01:25:20;96320.03;;;13.80;93.23
45345;BME280;31078;48.304;11.896;2022-10-16T01:27:51;96323.56;;;13.68;94.51
45345;BME280;31078;48.304;11.896;2022-10-16T01:30:21;96319.19;;;13.55;95.40
45345;BME280;31078;48.304;11.896;2022-10-16T01:32:52;96325.81;;;13.66;94.95
45345;BME280;31078;48.304;11.896;2022-10-16T01:35:24;96329.84;;;13.69;94.61
45345;BME280;31078;48.304;11.896;2022-10-16T01:37:54;96336.34;;;13.76;94.18
45345;BME280;31078;48.304;11.896;2022-10-16T01:40:26;96331.34;;;13.78;93.93
45345;BME280;31078;48.304;11.896;2022-10-16T01:42:58;96338.19;;;13.84;93.67
45345;BME280;31078;48.304;11.896;2022-10-16T01:45:28;96337.72;;;13.82;93.67
45345;BME280;31078;48.304;11.896;2022-10-16T01:47:58;96328.84;;;13.86;93.62
45345;BME280;31078;48.304;11.896;2022-10-16T01:50:31;96326.97;;;13.77;93.88
45345;BME280;31078;48.304;11.896;2022-10-16T01:53:00;96320.84;;;13.80;93.90
45345;BME280;31078;48.304;11.896;2022-10-16T01:55:31;96314.56;;;13.80;93.93
45345;BME280;31078;48.304;11.896;2022-10-16T01:58:01;96311.47;;;13.81;93.94
45345;BME280;31078;48.304;11.896;2022-10-16T02:00:30;96310.25;;;13.79;94.12
45345;BME280;31078;48.304;11.896;2022-10-16T02:02:58;96310.56;;;13.77;94.39
45345;BME280;31078;48.304;11.896;2022-10-16T02:05:31;96308.31;;;13.79;94.33
45345;BME280;31078;48.304;11.896;2022-10-16T02:07:59;96311.69;;;13.76;94.50
45345;BME280;31078;48.304;11.896;2022-10-16T02:10:26;96312.28;;;13.82;94.62
45345;BME280;31078;48.304;11.896;2022-10-16T02:13:00;96316.75;;;13.87;94.32
45345;BME280;31078;48.304;11.896;2022-10-16T02:15:29;96323.34;;;13.86;94.41
45345;BME280;31078;48.304;11.896;2022-10-16T02:17:56;96316.72;;;13.74;95.01
45345;BME280;31078;48.304;11.896;2022-10-16T02:20:27;96307.25;;;13.72;95.26
45345;BME280;31078;48.304;11.896;2022-10-16T02:22:56;96304.19;;;13.73;95.24
45345;BME280;31078;48.304;11.896;2022-10-16T02:25:26;96312.72;;;13.72;95.16
45345;BME280;31078;48.304;11.896;2022-10-16T02:27:55;96314.22;;;13.69;95.32
45345;BME280;31078;48.304;11.896;2022-10-16T02:30:28;96319.47;;;13.74;94.92
45345;BME280;31078;48.304;11.896;2022-10-16T02:32:58;96328.13;;;13.76;94.72
45345;BME280;31078;48.304;11.896;2022-10-16T02:35:27;96336.09;;;13.69;94.70
45345;BME280;31078;48.304;11.896;2022-10-16T02:37:55;96342.50;;;13.73;94.58
45345;BME280;31078;48.304;11.896;2022-10-16T02:40:22;96332.09;;;13.67;95.00
45345;BME280;31078;48.304;11.896;2022-10-16T02:42:51;96331.06;;;13.71;94.83
45345;BME280;31078;48.304;11.896;2022-10-16T02:45:19;96330.41;;;13.74;94.61
45345;BME280;31078;48.304;11.896;2022-10-16T02:47:47;96327.19;;;13.72;94.46
45345;BME280;31078;48.304;11.896;2022-10-16T02:50:14;96331.34;;;13.78;94.18
45345;BME280;31078;48.304;11.896;2022-10-16T02:52:41;96340.88;;;13.72;93.59
45345;BME280;31078;48.304;11.896;2022-10-16T02:55:08;96340.88;;;13.72;93.19
45345;BME280;31078;48.304;11.896;2022-10-16T02:57:34;96338.84;;;13.69;92.88
45345;BME280;31078;48.304;11.896;2022-10-16T03:00:03;96351.59;;;13.65;92.68
45345;BME280;31078;48.304;11.896;2022-10-16T03:02:29;96347.91;;;13.61;92.50
45345;BME280;31078;48.304;11.896;2022-10-16T03:04:57;96345.88;;;13.58;92.65
45345;BME280;31078;48.304;11.896;2022-10-16T03:07:24;96331.47;;;13.49;92.70
45345;BME280;31078;48.304;11.896;2022-10-16T03:09:50;96329.88;;;13.48;92.74
45345;BME280;31078;48.304;11.896;2022-10-16T03:12:17;96323.13;;;13.45;93.15
45345;BME280;31078;48.304;11.896;2022-10-16T03:14:43;96330.41;;;13.41;93.42
45345;BME280;31078;48.304;11.896;2022-10-16T03:17:10;96330.97;;;13.35;93.59
45345;BME280;31078;48.304;11.896;2022-10-16T03:19:38;96337.13;;;13.31;93.57
45345;BME280;31078;48.304;11.896;2022-10-16T03:22:06;96338.56;;;13.29;93.61
45345;BME280;31078;48.304;11.896;2022-10-16T03:24:32;96343.91;;;13.25;93.48
45345;BME280;31078;48.304;11.896;2022-10-16T03:26:59;96339.91;;;13.02;93.95
45345;BME280;31078;48.304;11.896;2022-10-16T03:29:25;96347.56;;;13.09;93.94
45345;BME280;31078;48.304;11.896;2022-10-16T03:31:54;96350.19;;;13.05;93.88
45345;BME280;31078;48.304;11.896;2022-10-16T03:34:21;96333.78;;;13.05;93.36
45345;BME280;31078;48.304;11.896;2022-10-16T03:36:47;96334.44;;;13.02;93.72
45345;BME280;31078;48.304;11.896;2022-10-16T03:39:15;96334.91;;;13.04;93.85
45345;BME280;31078;48.304;11.896;2022-10-16T03:41:42;96340.09;;;12.97;93.93
45345;BME280;31078;48.304;11.896;2022-10-16T03:44:08;96345.91;;;12.95;93.86
45345;BME280;31078;48.304;11.896;2022-10-16T03:46:35;96350.09;;;12.93;93.59
45345;BME280;31078;48.304;11.896;2022-10-16T03:49:02;96339.38;;;12.88;93.71
45345;BME280;31078;48.304;11.896;2022-10-16T03:51:28;96345.16;;;12.86;94.00
45345;BME280;31078;48.304;11.896;2022-10-16T03:53:55;96337.31;;;12.85;93.96
45345;BME280;31078;48.304;11.896;2022-10-16T03:56:22;96342.03;;;12.75;94.29
45345;BME280;31078;48.304;11.896;2022-10-16T03:58:49;96339.31;;;12.75;94.49
45345;BME280;31078;48.304;11.896;2022-10-16T04:01:16;96347.00;;;12.73;94.60
45345;BME280;31078;48.304;11.896;2022-10-16T04:03:42;96349.75;;;12.73;94.76
45345;BME280;31078;48.304;11.896;2022-10-16T04:06:09;96353.41;;;12.77;94.78
45345;BME280;31078;48.304;11.896;2022-10-16T04:08:35;96363.50;;;12.86;94.89
45345;BME280;31078;48.304;11.896;2022-10-16T04:11:02;96372.31;;;12.91;94.81
45345;BME280;31078;48.304;11.896;2022-10-16T04:13:30;96366.16;;;12.94;94.66
45345;BME280;31078;48.304;11.896;2022-10-16T04:15:57;96370.19;;;12.97;94.62
45345;BME280;31078;48.304;11.896;2022-10-16T04:18:23;96375.63;;;12.97;94.51
45345;BME280;31078;48.304;11.896;2022-10-16T04:20:52;96375.31;;;12.98;94.54
45345;BME280;31078;48.304;11.896;2022-10-16T04:23:19;96369.03;;;12.98;94.86
45345;BME280;31078;48.304;11.896;2022-10-16T04:25:45;96373.38;;;12.99;95.27
45345;BME280;31078;48.304;11.896;2022-10-16T04:28:12;96370.97;;;12.97;95.51
45345;BME280;31078;48.304;11.896;2022-10-16T04:30:40;96372.72;;;13.02;95.35
45345;BME280;31078;48.304;11.896;2022-10-16T04:33:08;96370.91;;;13.06;95.44
45345;BME280;31078;48.304;11.896;2022-10-16T04:35:35;96371.22;;;13.04;95.33
45345;BME280;31078;48.304;11.896;2022-10-16T04:38:01;96370.91;;;13.06;95.38
45345;BME280;31078;48.304;11.896;2022-10-16T04:40:28;96369.78;;;13.07;95.64
45345;BME280;31078;48.304;11.896;2022-10-16T04:42:57;96362.44;;;12.99;95.61
45345;BME280;31078;48.304;11.896;2022-10-16T04:45:24;96363.13;;;12.96;95.51
45345;BME280;31078;48.304;11.896;2022-10-16T04:47:53;96364.72;;;12.97;95.48
45345;BME280;31078;48.304;11.896;2022-10-16T04:50:22;96360.69;;;12.94;95.44
45345;BME280;31078;48.304;11.896;2022-10-16T04:52:49;96361.19;;;12.96;95.26
45345;BME280;31078;48.304;11.896;2022-10-16T04:55:15;96354.22;;;12.99;95.02
45345;BME280;31078;48.304;11.896;2022-10-16T04:57:42;96357.25;;;13.06;95.01
45345;BME280;31078;48.304;11.896;2022-10-16T05:00:10;96363.50;;;13.06;95.01
45345;BME280;31078;48.304;11.896;2022-10-16T05:02:36;96357.91;;;13.03;95.01
45345;BME280;31078;48.304;11.896;2022-10-16T05:05:05;96360.78;;;13.06;94.77
45345;BME280;31078;48.304;11.896;2022-10-16T05:07:32;96354.81;;;13.04;94.82
45345;BME280;31078;48.304;11.896;2022-10-16T05:09:58;96362.03;;;13.09;94.62
45345;BME280;31078;48.304;11.896;2022-10-16T05:12:25;96359.97;;;13.06;94.71
45345;BME280;31078;48.304;11.896;2022-10-16T05:14:52;96361.72;;;13.11;94.34
45345;BME280;31078;48.304;11.896;2022-10-16T05:17:23;96364.91;;;13.13;94.54
45345;BME280;31078;48.304;11.896;2022-10-16T05:19:50;96367.78;;;13.16;94.56
45345;BME280;31078;48.304;11.896;2022-10-16T05:22:18;96359.56;;;13.16;94.46
45345;BME280;31078;48.304;11.896;2022-10-16T05:24:45;96359.69;;;13.20;94.15
45345;BME280;31078;48.304;11.896;2022-10-16T05:27:11;96358.28;;;13.22;94.03
45345;BME280;31078;48.304;11.896;2022-10-16T05:29:44;96365.13;;;13.28;94.28
45345;BME280;31078;48.304;11.896;2022-10-16T05:32:11;96351.91;;;13.30;94.38
45345;BME280;31078;48.304;11.896;2022-10-16T05:34:37;96359.44;;;13.34;94.36
45345;BME280;31078;48.304;11.896;2022-10-16T05:37:04;96363.13;;;13.38;94.35
45345;BME280;31078;48.304;11.896;2022-10-16T05:39:32;96365.16;;;13.41;94.08
45345;BME280;31078;48.304;11.896;2022-10-16T05:41:59;96363.56;;;13.40;93.94
45345;BME280;31078;48.304;11.896;2022-10-16T05:44:26;96367.91;;;13.41;93.99
45345;BME280;31078;48.304;11.896;2022-10-16T05:46:52;96366.19;;;13.36;94.12
45345;BME280;31078;48.304;11.896;2022-10-16T05:49:19;96368.59;;;13.38;94.32
45345;BME280;31078;48.304;11.896;2022-10-16T05:51:46;96377.75;;;13.42;94.43
45345;BME280;31078;48.304;11.896;2022-10-16T05:54:12;96381.38;;;13.46;93.98
45345;BME280;31078;48.304;11.896;2022-10-16T05:56:40;96394.16;;;13.42;93.39
45345;BME280;31078;48.304;11.896;2022-10-16T05:59:07;96403.59;;;13.44;93.64
45345;BME280;31078;48.304;11.896;2022-10-16T06:01:33;96402.47;;;13.45;93.71
45345;BME280;31078;48.304;11.896;2022-10-16T06:04:00;96390.72;;;13.45;93.58
45345;BME280;31078;48.304;11.896;2022-10-16T06:06:27;96407.38;;;13.52;93.46
45345;BME280;31078;48.304;11.896;2022-10-16T06:08:55;96408.06;;;13.49;93.63
45345;BME280;31078;48.304;11.896;2022-10-16T06:11:24;96405.19;;;13.45;93.81
45345;BME280;31078;48.304;11.896;2022-10-16T06:13:54;96401.00;;;13.48;93.93
45345;BME280;31078;48.304;11.896;2022-10-16T06:16:22;96397.59;;;13.51;93.96
45345;BME280;31078;48.304;11.896;2022-10-16T06:18:51;96399.66;;;13.54;93.87
45345;BME280;31078;48.304;11.896;2022-10-16T06:21:20;96412.19;;;13.55;93.74
45345;BME280;31078;48.304;11.896;2022-10-16T06:23:47;96404.78;;;13.55;93.77
45345;BME280;31078;48.304;11.896;2022-10-16T06:26:16;96406.72;;;13.55;93.74
45345;BME280;31078;48.304;11.896;2022-10-16T06:28:43;96408.53;;;13.51;93.99
45345;BME280;31078;48.304;11.896;2022-10-16T06:31:11;96423.00;;;13.51;93.24
45345;BME280;31078;48.304;11.896;2022-10-16T06:33:38;96425.44;;;13.53;93.09
45345;BME280;31078;48.304;11.896;2022-10-16T06:36:07;96428.47;;;13.51;92.79
45345;BME280;31078;48.304;11.896;2022-10-16T06:38:34;96432.84;;;13.52;92.96
45345;BME280;31078;48.304;11.896;2022-10-16T06:41:02;96426.53;;;13.52;92.94
45345;BME280;31078;48.304;11.896;2022-10-16T06:43:29;96436.03;;;13.54;92.82
45345;BME280;31078;48.304;11.896;2022-10-16T06:45:59;96442.94;;;13.52;92.42
45345;BME280;31078;48.304;11.896;2022-10-16T06:48:28;96443.63;;;13.49;92.28
45345;BME280;31078;48.304;11.896;2022-10-16T06:50:57;96446.13;;;13.42;92.54
45345;BME280;31078;48.304;11.896;2022-10-16T06:53:24;96447.72;;;13.43;92.57
45345;BME280;31078;48.304;11.896;2022-10-16T06:55:50;96444.97;;;13.43;92.79
45345;BME280;31078;48.304;11.896;2022-10-16T06:58:17;96450.09;;;13.44;92.61
45345;BME280;31078;48.304;11.896;2022-10-16T07:00:44;96454.78;;;13.44;92.83
45345;BME280;31078;48.304;11.896;2022-10-16T07:03:10;96451.69;;;13.45;93.06
45345;BME280;31078;48.304;11.896;2022-10-16T07:05:38;96454.91;;;13.47;93.26
45345;BME280;31078;48.304;11.896;2022-10-16T07:08:05;96463.25;;;13.51;93.29
45345;BME280;31078;48.304;11.896;2022-10-16T07:10:32;96468.84;;;13.54;93.42
45345;BME280;31078;48.304;11.896;2022-10-16T07:12:59;96476.53;;;13.61;93.70
45345;BME280;31078;48.304;11.896;2022-10-16T07:15:26;96477.91;;;13.67;93.66
45345;BME280;31078;48.304;11.896;2022-10-16T07:17:53;96479.44;;;13.77;93.65
45345;BME280;31078;48.304;11.896;2022-10-16T07:20:19;96480.53;;;13.84;93.92
45345;BME280;31078;48.304;11.896;2022-10-16T07:22:47;96488.44;;;13.98;93.44
45345;BME280;31078;48.304;11.896;2022-10-16T07:25:14;96491.06;;;13.95;91.71
45345;BME280;31078;48.304;11.896;2022-10-16T07:27:41;96486.50;;;13.99;91.38
45345;BME280;31078;48.304;11.896;2022-10-16T07:30:08;96486.06;;;14.09;90.96
45345;BME280;31078;48.304;11.896;2022-10-16T07:32:35;96497.16;;;14.13;90.68
45345;BME280;31078;48.304;11.896;2022-10-16T07:35:01;96492.47;;;14.13;90.83
45345;BME280;31078;48.304;11.896;2022-10-16T07:37:28;96492.75;;;14.20;90.31
45345;BME280;31078;48.304;11.896;2022-10-16T07:39:56;96492.78;;;14.32;90.02
45345;BME280;31078;48.304;11.896;2022-10-16T07:42:22;96503.75;;;14.45;89.83
45345;BME280;31078;48.304;11.896;2022-10-16T07:44:49;96488.09;;;14.45;87.24
45345;BME280;31078;48.304;11.896;2022-10-16T07:47:15;96501.50;;;14.47;85.86
45345;BME280;31078;48.304;11.896;2022-10-16T07:49:42;96502.41;;;14.51;85.95
45345;BME280;31078;48.304;11.896;2022-10-16T07:52:08;96509.97;;;14.66;84.69
45345;BME280;31078;48.304;11.896;2022-10-16T07:54:35;96508.38;;;14.65;84.70
45345;BME280;31078;48.304;11.896;2022-10-16T07:57:03;96515.50;;;14.91;84.14
45345;BME280;31078;48.304;11.896;2022-10-16T07:59:29;96512.31;;;15.01;84.15
45345;BME280;31078;48.304;11.896;2022-10-16T08:01:56;96516.66;;;15.02;82.64
45345;BME280;31078;48.304;11.896;2022-10-16T08:04:23;96526.25;;;15.20;82.69
45345;BME280;31078;48.304;11.896;2022-10-16T08:06:49;96516.88;;;15.33;81.49
45345;BME280;31078;48.304;11.896;2022-10-16T08:09:16;96529.69;;;15.42;81.10
45345;BME280;31078;48.304;11.896;2022-10-16T08:11:43;96527.50;;;15.47;80.64
45345;BME280;31078;48.304;11.896;2022-10-16T08:14:10;96524.16;;;15.54;80.28
45345;BME280;31078;48.304;11.896;2022-10-16T08:16:37;96531.47;;;15.62;79.68
45345;BME280;31078;48.304;11.896;2022-10-16T08:19:03;96528.94;;;15.81;77.68
45345;BME280;31078;48.304;11.896;2022-10-16T08:21:30;96536.00;;;15.95;76.85
45345;BME280;31078;48.304;11.896;2022-10-16T08:23:57;96537.81;;;16.03;76.12
45345;BME280;31078;48.304;11.896;2022-10-16T08:26:25;96540.94;;;16.17;75.78
45345;BME280;31078;48.304;11.896;2022-10-16T08:28:52;96545.00;;;16.35;75.87
45345;BME280;31078;48.304;11.896;2022-10-16T08:31:21;96537.59;;;16.52;76.32
45345;BME280;31078;48.304;11.896;2022-10-16T08:33:48;96538.63;;;16.75;77.27
45345;BME280;31078;48.304;11.896;2022-10-16T08:36:15;96540.78;;;16.82;75.47
45345;BME280;31078;48.304;11.896;2022-10-16T08:38:42;96540.78;;;16.98;75.51
45345;BME280;31078;48.304;11.896;2022-10-16T08:41:20;96539.09;;;17.09;73.65
45345;BME280;31078;48.304;11.896;2022-10-16T08:44:12;96545.66;;;17.20;72.39
45345;BME280;31078;48.304;11.896;2022-10-16T08:46:51;96553.53;;;17.06;71.45
45345;BME280;31078;48.304;11.896;2022-10-16T08:49:21;96550.53;;;17.27;73.00
45345;BME280;31078;48.304;11.896;2022-10-16T08:51:50;96542.63;;;17.25;72.88
45345;BME280;31078;48.304;11.896;2022-10-16T08:54:26;96550.78;;;17.37;72.07
45345;BME280;31078;48.304;11.896;2022-10-16T08:56:55;96546.69;;;17.47;72.29
45345;BME280;31078;48.304;11.896;2022-10-16T08:59:22;96559.72;;;17.66;71.50
45345;BME280;31078;48.304;11.896;2022-10-16T09:01:51;96559.69;;;17.82;70.06
45345;BME280;31078;48.304;11.896;2022-10-16T09:04:44;96557.47;;;17.87;69.27
45345;BME280;31078;48.304;11.896;2022-10-16T09:07:18;96564.69;;;17.76;68.59
45345;BME280;31078;48.304;11.896;2022-10-16T09:10:06;96560.06;;;17.99;68.41
45345;BME280;31078;48.304;11.896;2022-10-16T09:12:38;96564.91;;;18.22;69.08
45345;BME280;31078;48.304;11.896;2022-10-16T09:15:14;96558.56;;;18.41;68.87
45345;BME280;31078;48.304;11.896;2022-10-16T09:17:52;96568.09;;;18.43;66.28
45345;BME280;31078;48.304;11.896;2022-10-16T09:20:28;96561.97;;;18.54;66.98
45345;BME280;31078;48.304;11.896;2022-10-16T09:23:10;96559.06;;;18.66;66.25
45345;BME280;31078;48.304;11.896;2022-10-16T09:25:44;96561.06;;;18.88;66.85
45345;BME280;31078;48.304;11.896;2022-10-16T09:28:13;96555.91;;;19.10;68.32
45345;BME280;31078;48.304;11.896;2022-10-16T09:30:40;96553.16;;;19.33;67.78
45345;BME280;31078;48.304;11.896;2022-10-16T09:33:10;96553.25;;;19.40;64.55
45345;BME280;31078;48.304;11.896;2022-10-16T09:35:38;96555.13;;;19.32;64.02
45345;BME280;31078;48.304;11.896;2022-10-16T09:38:06;96551.13;;;19.52;65.09
45345;BME280;31078;48.304;11.896;2022-10-16T09:40:35;96555.81;;;19.75;65.16
45345;BME280;31078;48.304;11.896;2022-10-16T09:43:20;96558.81;;;19.93;63.85
45345;BME280;31078;48.304;11.896;2022-10-16T09:45:55;96561.63;;;19.96;62.65
45345;BME280;31078;48.304;11.896;2022-10-16T09:48:25;96568.44;;;20.02;62.98
45345;BME280;31078;48.304;11.896;2022-10-16T09:50:57;96565.25;;;20.00;61.97
45345;BME280;31078;48.304;11.896;2022-10-16T09:53:27;96566.25;;;20.15;63.51
45345;BME280;31078;48.304;11.896;2022-10-16T09:56:04;96569.56;;;20.28;62.26
45345;BME280;31078;48.304;11.896;2022-10-16T09:58:31;96572.84;;;20.37;62.07
45345;BME280;31078;48.304;11.896;2022-10-16T10:00:58;96570.47;;;20.39;61.44
45345;BME280;31078;48.304;11.896;2022-10-16T10:03:35;96571.66;;;20.38;61.49
45345;BME280;31078;48.304;11.896;2022-10-16T10:06:13;96578.22;;;20.56;61.41
45345;BME280;31078;48.304;11.896;2022-10-16T10:08:56;96582.75;;;20.72;61.45
45345;BME280;31078;48.304;11.896;2022-10-16T10:11:44;96591.88;;;20.76;60.01
45345;BME280;31078;48.304;11.896;2022-10-16T10:14:17;96592.44;;;20.92;61.29
45345;BME280;31078;48.304;11.896;2022-10-16T10:16:45;96586.97;;;20.96;60.76
45345;BME280;31078;48.304;11.896;2022-10-16T10:19:15;96582.28;;;21.03;60.31
45345;BME280;31078;48.304;11.896;2022-10-16T10:21:43;96581.94;;;21.08;59.55
45345;BME280;31078;48.304;11.896;2022-10-16T10:24:13;96579.31;;;21.23;60.15
45345;BME280;31078;48.304;11.896;2022-10-16T10:26:47;96581.28;;;21.22;60.07
45345;BME280;31078;48.304;11.896;2022-10-16T10:29:23;96575.53;;;21.38;61.38
45345;BME280;31078;48.304;11.896;2022-10-16T10:32:00;96571.28;;;21.51;60.92
45345;BME280;31078;48.304;11.896;2022-10-16T10:34:49;96576.44;;;21.53;59.86
45345;BME280;31078;48.304;11.896;2022-10-16T10:37:32;96574.22;;;21.73;58.95
45345;BME280;31078;48.304;11.896;2022-10-16T10:40:11;96581.22;;;21.59;59.35
45345;BME280;31078;48.304;11.896;2022-10-16T10:42:48;96582.78;;;21.53;60.06
45345;BME280;31078;48.304;11.896;2022-10-16T10:45:17;96582.78;;;21.53;60.64
45345;BME280;31078;48.304;11.896;2022-10-16T10:47:52;96577.34;;;21.68;60.33
45345;BME280;31078;48.304;11.896;2022-10-16T10:50:25;96567.88;;;21.76;60.39
45345;BME280;31078;48.304;11.896;2022-10-16T10:53:04;96562.44;;;21.90;60.50
45345;BME280;31078;48.304;11.896;2022-10-16T10:55:39;96561.69;;;21.93;59.85
45345;BME280;31078;48.304;11.896;2022-10-16T10:58:21;96566.84;;;22.02;59.69
45345;BME280;31078;48.304;11.896;2022-10-16T11:00:56;96573.63;;;22.08;54.78
45345;BME280;31078;48.304;11.896;2022-10-16T11:03:35;96577.72;;;22.25;53.96
45345;BME280;31078;48.304;11.896;2022-10-16T11:06:12;96578.13;;;22.27;54.41
45345;BME280;31078;48.304;11.896;2022-10-16T11:08:46;96572.22;;;22.39;54.01
45345;BME280;31078;48.304;11.896;2022-10-16T11:11:17;96571.00;;;22.33;54.89
45345;BME280;31078;48.304;11.896;2022-10-16T11:13:53;96573.09;;;22.50;56.15
45345;BME280;31078;48.304;11.896;2022-10-16T11:16:25;96577.84;;;22.53;56.20
45345;BME280;31078;48.304;11.896;2022-10-16T11:18:58;96571.53;;;22.56;53.47
45345;BME280;31078;48.304;11.896;2022-10-16T11:21:30;96565.19;;;22.63;52.41
45345;BME280;31078;48.304;11.896;2022-10-16T11:24:01;96572.34;;;22.75;51.79
45345;BME280;31078;48.304;11.896;2022-10-16T11:26:34;96560.47;;;22.74;51.70
45345;BME280;31078;48.304;11.896;2022-10-16T11:29:04;96569.22;;;22.83;52.93
45345;BME280;31078;48.304;11.896;2022-10-16T11:31:40;96566.09;;;22.92;50.45
45345;BME280;31078;48.304;11.896;2022-10-16T11:34:12;96566.88;;;22.96;48.93
45345;BME280;31078;48.304;11.896;2022-10-16T11:36:50;96561.34;;;22.92;48.82
45345;BME280;31078;48.304;11.896;2022-10-16T11:39:20;96565.34;;;23.16;50.10
45345;BME280;31078;48.304;11.896;2022-10-16T11:41:49;96560.97;;;23.37;47.27
45345;BME280;31078;48.304;11.896;2022-10-16T11:44:34;96572.09;;;23.58;47.85
45345;BME280;31078;48.304;11.896;2022-10-16T11:47:11;96565.38;;;23.70;46.40
45345;BME280;31078;48.304;11.896;2022-10-16T11:49:42;96569.31;;;23.80;45.96
45345;BME280;31078;48.304;11.896;2022-10-16T11:52:16;96578.84;;;23.89;47.14
45345;BME280;31078;48.304;11.896;2022-10-16T11:54:49;96574.91;;;23.69;45.91
45345;BME280;31078;48.304;11.896;2022-10-16T11:57:20;96569.31;;;23.94;47.10
45345;BME280;31078;48.304;11.896;2022-10-16T11:59:51;96568.94;;;23.92;46.38
45345;BME280;31078;48.304;11.896;2022-10-16T12:02:29;96559.75;;;24.09;48.92
45345;BME280;31078;48.304;11.896;2022-10-16T12:05:06;96561.31;;;24.17;46.31
45345;BME280;31078;48.304;11.896;2022-10-16T12:07:39;96564.44;;;24.37;44.07
45345;BME280;31078;48.304;11.896;2022-10-16T12:10:10;96554.53;;;24.33;42.45
45345;BME280;31078;48.304;11.896;2022-10-16T12:12:39;96555.31;;;24.30;43.00
45345;BME280;31078;48.304;11.896;2022-10-16T12:15:20;96550.16;;;24.35;45.00
45345;BME280;31078;48.304;11.896;2022-10-16T12:17:48;96552.41;;;24.65;46.16
45345;BME280;31078;48.304;11.896;2022-10-16T12:20:22;96556.00;;;24.62;43.90
45345;BME280;31078;48.304;11.896;2022-10-16T12:22:52;96553.19;;;24.69;44.98
45345;BME280;31078;48.304;11.896;2022-10-16T12:25:22;96552.34;;;24.80;43.96
45345;BME280;31078;48.304;11.896;2022-10-16T12:27:59;96556.34;;;24.71;41.30
45345;BME280;31078;48.304;11.896;2022-10-16T12:30:29;96552.66;;;24.96;41.03
45345;BME280;31078;48.304;11.896;2022-10-16T12:32:57;96550.63;;;25.07;40.59
45345;BME280;31078;48.304;11.896;2022-10-16T12:35:29;96552.34;;;24.80;40.79
45345;BME280;31078;48.304;11.896;2022-10-16T12:38:24;96560.16;;;25.03;41.04
45345;BME280;31078;48.304;11.896;2022-10-16T12:40:58;96555.84;;;24.91;40.03
45345;BME280;31078;48.304;11.896;2022-10-16T12:43:40;96553.31;;;24.34;40.61
45345;BME280;31078;48.304;11.896;2022-10-16T12:46:35;96558.88;;;24.27;41.70
45345;BME280;31078;48.304;11.896;2022-10-16T12:49:22;96546.19;;;24.22;43.45
45345;BME280;31078;48.304;11.896;2022-10-16T12:51:50;96556.03;;;24.55;41.81
45345;BME280;31078;48.304;11.896;2022-10-16T12:54:20;96550.72;;;24.86;39.86
45345;BME280;31078;48.304;11.896;2022-10-16T12:57:04;96546.63;;;25.08;40.86
45345;BME280;31078;48.304;11.896;2022-10-16T12:59:40;96554.53;;;25.13;39.89
45345;BME280;31078;48.304;11.896;2022-10-16T13:02:44;96555.44;;;24.96;40.21
45345;BME280;31078;48.304;11.896;2022-10-16T13:05:24;96553.44;;;24.96;41.42